Time;durP1;ratioP1;P1;durP2;ratioP2;P2;SDS_P1;SDS_P2;PMS_P1;PMS_P2;Temp;Humidity;BMP_temperature;BMP_pressure;BME280_temperature;BME280_humidity;BME280_pressure;Samples;Min_cycle;Max_cycle;Signal;HPM_P1;HPM_P2
2022/03/19 00:00:24;;;;;;;13.43;5.90;;;;;;;8.83;69.30;104297.38;5042661;28;20499;-47
2022/03/19 00:02:52;;;;;;;14.60;6.00;;;;;;;8.79;70.11;104297.88;5050347;28;20044;-47
2022/03/19 00:05:21;;;;;;;11.38;5.90;;;;;;;8.89;69.27;104298.56;5053148;28;20037;-46
2022/03/19 00:07:49;;;;;;;11.55;5.55;;;;;;;8.95;69.50;104297.88;5053093;28;20041;-48
2022/03/19 00:10:19;;;;;;;12.77;6.32;;;;;;;8.93;69.37;104292.59;5046688;28;20045;-49
2022/03/19 00:12:49;;;;;;;14.23;6.35;;;;;;;8.90;69.51;104292.09;5033357;28;20583;-48
2022/03/19 00:15:17;;;;;;;14.95;6.30;;;;;;;8.95;69.64;104296.00;5032805;28;20449;-47
2022/03/19 00:17:45;;;;;;;13.38;6.38;;;;;;;8.99;69.69;104296.50;5033242;28;20041;-46
2022/03/19 00:20:12;;;;;;;13.38;6.53;;;;;;;8.96;69.72;104297.69;5032213;28;20412;-46
2022/03/19 00:22:40;;;;;;;13.65;6.32;;;;;;;8.96;69.59;104300.41;5050876;28;20056;-46
2022/03/19 00:25:11;;;;;;;13.93;6.47;;;;;;;8.89;70.04;104296.66;5053105;28;20049;-46
2022/03/19 00:27:42;;;;;;;15.00;7.15;;;;;;;8.86;70.40;104294.31;5051707;28;20144;-46
2022/03/19 00:30:10;;;;;;;11.98;5.80;;;;;;;8.88;70.68;104291.44;5053033;28;20045;-47
2022/03/19 00:32:38;;;;;;;14.50;7.07;;;;;;;8.84;70.88;104296.34;5043591;28;20068;-48
2022/03/19 00:35:07;;;;;;;13.00;6.47;;;;;;;8.81;70.80;104291.25;5051265;28;20151;-45
2022/03/19 00:37:44;;;;;;;16.15;7.25;;;;;;;8.77;71.68;104298.03;5052822;28;20041;-47
2022/03/19 00:40:12;;;;;;;12.63;6.10;;;;;;;8.71;72.34;104299.59;5052165;28;20049;-44
2022/03/19 00:42:41;;;;;;;13.43;6.20;;;;;;;8.54;72.53;104292.44;5048661;28;20045;-47
2022/03/19 00:45:10;;;;;;;13.48;6.57;;;;;;;8.56;72.66;104294.97;5031822;28;20046;-46
2022/03/19 00:47:38;;;;;;;16.00;7.38;;;;;;;8.57;72.91;104291.25;5033522;28;20211;-50
2022/03/19 00:50:07;;;;;;;13.70;6.80;;;;;;;8.55;73.52;104288.69;5043282;28;20044;-46
2022/03/19 00:52:35;;;;;;;15.10;6.90;;;;;;;8.58;73.15;104282.91;5052522;28;20044;-50
2022/03/19 00:55:03;;;;;;;14.85;6.55;;;;;;;8.62;73.21;104283.44;5051630;28;20135;-50
2022/03/19 00:57:45;;;;;;;12.43;6.25;;;;;;;8.55;73.56;104290.56;5052276;28;20492;-46
2022/03/19 01:00:15;;;;;;;13.82;6.63;;;;;;;8.38;74.86;104286.97;5044083;28;20041;-46
2022/03/19 01:02:43;;;;;;;15.00;7.15;;;;;;;8.31;75.19;104289.50;5034820;28;20052;-46
2022/03/19 01:05:13;;;;;;;15.30;7.53;;;;;;;8.34;75.83;104291.88;5035183;28;20049;-46
2022/03/19 01:07:47;;;;;;;16.38;7.53;;;;;;;8.36;75.79;104289.81;5036388;28;20543;-47
2022/03/19 01:10:19;;;;;;;16.65;6.90;;;;;;;8.33;75.85;104290.19;5035113;28;20041;-48
2022/03/19 01:12:48;;;;;;;11.32;6.60;;;;;;;8.40;76.15;104291.25;5047691;28;20480;-48
2022/03/19 01:15:16;;;;;;;11.57;6.78;;;;;;;8.49;74.95;104282.06;5055952;28;20041;-46
2022/03/19 01:17:44;;;;;;;13.07;6.40;;;;;;;8.48;75.48;104282.22;5056134;28;20412;-46
2022/03/19 01:20:13;;;;;;;12.63;7.15;;;;;;;8.50;75.20;104280.19;5053185;28;20045;-46
2022/03/19 01:22:42;;;;;;;13.18;6.03;;;;;;;8.46;75.37;104279.69;5047741;28;20041;-46
2022/03/19 01:25:11;;;;;;;13.80;6.03;;;;;;;8.48;75.90;104280.34;5034926;28;20049;-46
2022/03/19 01:27:41;;;;;;;14.20;6.70;;;;;;;8.40;76.11;104279.53;5034411;28;20045;-48
2022/03/19 01:30:11;;;;;;;14.70;6.85;;;;;;;8.24;77.05;104283.03;5036765;28;20045;-45
2022/03/19 01:32:40;;;;;;;18.55;7.38;;;;;;;8.21;77.44;104291.50;5046552;28;20427;-48
2022/03/19 01:35:09;;;;;;;12.82;5.75;;;;;;;8.19;77.11;104282.69;5035577;28;20058;-47
2022/03/19 01:37:37;;;;;;;15.93;7.03;;;;;;;8.19;77.79;104282.69;5035654;28;20045;-47
2022/03/19 01:40:06;;;;;;;15.57;6.88;;;;;;;8.23;77.64;104278.63;5036408;28;20049;-48
2022/03/19 01:42:37;;;;;;;14.35;6.15;;;;;;;8.23;77.19;104284.06;5026934;28;20041;-50
2022/03/19 01:45:08;;;;;;;15.88;6.22;;;;;;;8.16;77.75;104275.72;5054532;28;20041;-48
2022/03/19 01:47:36;;;;;;;14.38;6.30;;;;;;;8.09;78.42;104280.94;5055518;28;20491;-49
2022/03/19 01:50:04;;;;;;;14.77;6.43;;;;;;;8.07;78.67;104274.84;5039122;28;20069;-46
2022/03/19 01:52:32;;;;;;;19.13;7.65;;;;;;;8.13;77.95;104275.19;5048587;28;20094;-50
2022/03/19 01:55:00;;;;;;;14.57;6.45;;;;;;;8.16;78.43;104277.59;5055437;28;20476;-46
2022/03/19 01:57:34;;;;;;;18.52;7.07;;;;;;;8.16;78.21;104275.72;5053672;28;20037;-44
2022/03/19 02:00:05;;;;;;;16.92;7.15;;;;;;;8.14;78.36;104269.59;5040641;28;20045;-45
2022/03/19 02:02:39;;;;;;;16.17;6.72;;;;;;;8.13;78.29;104267.03;5044398;28;20040;-47
2022/03/19 02:05:12;;;;;;;14.30;5.75;;;;;;;8.17;78.35;104268.41;5054090;28;20045;-49
2022/03/19 02:07:44;;;;;;;14.13;6.40;;;;;;;8.19;78.14;104274.53;5054917;28;20063;-45
2022/03/19 02:10:16;;;;;;;15.55;6.80;;;;;;;8.19;78.40;104263.66;5055969;28;20045;-47
2022/03/19 02:12:44;;;;;;;11.95;6.10;;;;;;;8.08;79.56;104262.09;5038830;28;20053;-46
2022/03/19 02:15:14;;;;;;;16.63;7.35;;;;;;;8.07;79.11;104265.84;5034671;28;20073;-44
2022/03/19 02:17:41;;;;;;;15.18;6.32;;;;;;;7.96;79.30;104264.31;5034875;28;20077;-48
2022/03/19 02:20:10;;;;;;;14.70;6.53;;;;;;;7.87;80.43;104257.16;5045918;28;20503;-47
2022/03/19 02:22:37;;;;;;;17.33;6.43;;;;;;;7.85;80.48;104253.75;5043246;28;20037;-46
2022/03/19 02:27:52;;;;;;;17.45;6.40;;;;;;;7.72;81.19;104247.91;5034759;28;20056;-44
2022/03/19 02:30:20;;;;;;;16.38;6.72;;;;;;;7.71;81.10;104246.22;5037388;28;20052;-44
2022/03/19 02:32:49;;;;;;;12.70;5.93;;;;;;;7.64;81.84;104238.72;5035106;28;20055;-44
2022/03/19 02:35:18;;;;;;;13.95;5.90;;;;;;;7.58;81.83;104242.13;5034510;28;20053;-43
2022/03/19 02:37:50;;;;;;;10.55;5.25;;;;;;;7.58;82.73;104242.13;5034634;28;20041;-45
2022/03/19 02:40:19;;;;;;;14.77;6.30;;;;;;;7.71;82.42;104238.09;5041077;28;20450;-44
2022/03/19 02:42:50;;;;;;;18.85;6.47;;;;;;;7.69;82.38;104235.53;5021161;28;20041;-44
2022/03/19 02:45:19;;;;;;;16.27;6.70;;;;;;;7.80;81.79;104234.38;5033399;28;20034;-49
2022/03/19 02:47:59;;;;;;;13.15;5.97;;;;;;;7.74;81.95;104240.47;5034548;28;20053;-49
2022/03/19 02:50:37;;;;;;;17.08;6.15;;;;;;;7.60;82.09;104240.09;5035562;28;20041;-43
2022/03/19 02:53:10;;;;;;;15.35;5.78;;;;;;;7.58;83.00;104247.53;5034475;28;20049;-48
2022/03/19 02:55:40;;;;;;;14.38;6.47;;;;;;;7.49;82.74;104237.66;5034466;28;20460;-45
2022/03/19 02:58:09;;;;;;;15.88;6.93;;;;;;;7.32;83.83;104235.91;5034121;28;20045;-42
2022/03/19 03:00:38;;;;;;;12.52;6.25;;;;;;;7.27;84.50;104232.81;5034407;28;20399;-43
2022/03/19 03:03:06;;;;;;;13.43;6.03;;;;;;;7.21;85.58;104232.44;5053379;28;20048;-42
2022/03/19 03:05:35;;;;;;;15.65;6.72;;;;;;;7.36;84.60;104234.53;5040891;28;20063;-43
2022/03/19 03:08:03;;;;;;;15.65;5.85;;;;;;;7.46;84.73;104224.44;5041652;28;20051;-45
2022/03/19 03:10:32;;;;;;;19.08;6.30;;;;;;;7.48;83.95;104225.13;5052091;28;20033;-46
2022/03/19 03:13:00;;;;;;;15.07;6.45;;;;;;;7.35;84.58;104227.41;5052551;28;20048;-44
2022/03/19 03:15:28;;;;;;;13.23;5.95;;;;;;;7.25;85.52;104228.38;5053909;28;20048;-42
2022/03/19 03:17:56;;;;;;;16.48;6.32;;;;;;;7.22;86.01;104220.59;5053080;28;20537;-43
2022/03/19 03:20:23;;;;;;;13.48;6.18;;;;;;;7.31;85.35;104220.63;5051109;28;20056;-43
2022/03/19 03:22:51;;;;;;;14.68;5.95;;;;;;;7.31;85.34;104218.78;5032638;28;20041;-43
2022/03/19 03:25:19;;;;;;;16.70;6.03;;;;;;;7.30;85.41;104217.06;5033071;28;20132;-45
2022/03/19 03:27:47;;;;;;;14.73;5.53;;;;;;;7.25;85.85;104225.69;5033650;28;20053;-47
2022/03/19 03:30:18;;;;;;;14.55;5.80;;;;;;;7.17;85.95;104217.50;5034817;28;20044;-48
2022/03/19 03:32:46;;;;;;;17.27;6.57;;;;;;;7.19;86.22;104211.91;5033792;28;20045;-47
2022/03/19 03:35:14;;;;;;;14.93;6.30;;;;;;;7.20;86.15;104217.19;5033464;28;20060;-43
2022/03/19 03:37:41;;;;;;;12.45;6.05;;;;;;;7.24;86.03;104229.41;5032597;28;20045;-46
2022/03/19 03:40:09;;;;;;;15.45;6.68;;;;;;;7.18;86.28;104221.91;5034030;28;20049;-46
2022/03/19 03:42:41;;;;;;;15.73;6.60;;;;;;;7.12;86.76;104210.84;5033224;28;20048;-47
2022/03/19 03:45:10;;;;;;;14.02;5.88;;;;;;;7.19;86.37;104210.06;5031606;28;20493;-48
2022/03/19 03:47:38;;;;;;;16.33;6.25;;;;;;;7.27;86.36;104216.56;5031530;28;20037;-46
2022/03/19 03:50:06;;;;;;;17.90;6.75;;;;;;;7.28;85.49;104210.09;5039070;28;20065;-46
2022/03/19 03:52:34;;;;;;;13.18;6.32;;;;;;;7.26;85.63;104204.81;5053329;28;20045;-47
2022/03/19 03:55:03;;;;;;;17.52;6.38;;;;;;;7.28;86.26;104207.38;5053377;28;20037;-49
2022/03/19 03:57:31;;;;;;;17.30;6.72;;;;;;;7.31;85.05;104193.50;5048958;28;20128;-48
2022/03/19 03:59:58;;;;;;;14.73;6.05;;;;;;;7.24;85.46;104196.88;5034449;28;20054;-47
2022/03/19 04:02:26;;;;;;;16.23;5.78;;;;;;;7.19;85.66;104199.22;5032374;28;20044;-49
2022/03/19 04:04:54;;;;;;;17.63;6.90;;;;;;;7.19;86.15;104199.22;5033240;28;20042;-51
2022/03/19 04:07:23;;;;;;;11.88;5.45;;;;;;;7.21;86.13;104191.75;5033514;28;20038;-48
2022/03/19 04:09:51;;;;;;;15.50;5.95;;;;;;;7.21;85.67;104191.75;5036680;28;20041;-49
2022/03/19 04:12:19;;;;;;;16.77;6.55;;;;;;;7.10;85.61;104196.63;5033481;28;20121;-49
2022/03/19 04:14:46;;;;;;;13.30;5.97;;;;;;;7.09;86.30;104198.47;5033273;28;20045;-52
2022/03/19 04:17:14;;;;;;;16.25;6.70;;;;;;;7.10;85.73;104199.34;5034307;28;20055;-48
2022/03/19 04:19:42;;;;;;;16.02;6.38;;;;;;;7.08;86.09;104201.38;5034097;28;20041;-47
2022/03/19 04:22:10;;;;;;;14.50;5.57;;;;;;;7.11;86.09;104196.44;5032292;28;20046;-50
2022/03/19 04:24:38;;;;;;;15.95;6.63;;;;;;;7.15;86.37;104189.69;5031847;28;20047;-46
2022/03/19 04:27:07;;;;;;;15.45;5.25;;;;;;;7.13;86.18;104189.00;5033399;28;20037;-47
2022/03/19 04:29:35;;;;;;;12.68;5.80;;;;;;;7.23;85.23;104189.72;5038248;28;20045;-47
2022/03/19 04:32:03;;;;;;;17.00;6.75;;;;;;;7.23;85.21;104189.72;5051780;28;20392;-47
2022/03/19 04:34:31;;;;;;;15.18;6.10;;;;;;;7.14;85.45;104185.28;5052757;28;20491;-47
2022/03/19 04:36:58;;;;;;;15.18;6.30;;;;;;;7.04;85.73;104189.97;5050197;28;20116;-48
2022/03/19 04:39:26;;;;;;;17.35;6.55;;;;;;;6.92;86.07;104185.84;5047893;28;20221;-46
2022/03/19 04:41:54;;;;;;;16.75;7.15;;;;;;;6.89;86.37;104188.88;5043857;28;20107;-45
2022/03/19 04:44:22;;;;;;;17.10;6.80;;;;;;;6.72;86.84;104180.66;5056487;28;20044;-50
2022/03/19 04:46:50;;;;;;;18.45;6.82;;;;;;;6.68;88.02;104181.97;5056831;28;20140;-48
2022/03/19 04:49:18;;;;;;;14.30;6.25;;;;;;;6.77;87.84;104182.88;5047871;28;20488;-47
2022/03/19 04:51:45;;;;;;;14.00;6.25;;;;;;;6.85;86.80;104184.78;5035492;28;20132;-47
2022/03/19 04:54:13;;;;;;;13.95;6.43;;;;;;;6.97;85.99;104183.50;5035554;28;20073;-46
2022/03/19 04:56:41;;;;;;;18.55;6.28;;;;;;;7.02;85.71;104182.03;5035476;28;20049;-46
2022/03/19 04:59:11;;;;;;;14.88;5.97;;;;;;;6.94;85.28;104183.81;5047191;28;20491;-48
2022/03/19 05:01:39;;;;;;;15.80;6.90;;;;;;;6.83;85.69;104183.09;5035594;28;20041;-46
2022/03/19 05:04:08;;;;;;;14.82;6.80;;;;;;;6.67;86.54;104182.97;5036497;28;20045;-46
2022/03/19 05:06:35;;;;;;;14.52;6.60;;;;;;;6.64;87.48;104188.72;5036628;28;20037;-45
2022/03/19 05:11:49;;;;;;;13.60;6.25;;;;;;;6.66;87.60;104191.25;5056159;28;20053;-46
2022/03/19 05:14:17;;;;;;;14.95;6.50;;;;;;;6.53;87.51;104194.41;5056127;28;20044;-46
2022/03/19 05:16:45;;;;;;;15.52;6.43;;;;;;;6.51;88.10;104199.13;5056156;28;20127;-43
2022/03/19 05:19:12;;;;;;;14.30;6.78;;;;;;;6.58;87.98;104186.63;5051756;28;20045;-48
2022/03/19 05:21:40;;;;;;;16.02;6.57;;;;;;;6.69;87.41;104189.09;5035297;28;20046;-45
2022/03/19 05:24:07;;;;;;;17.27;6.68;;;;;;;6.64;86.77;104194.16;5036157;28;20041;-49
2022/03/19 05:26:35;;;;;;;14.90;6.78;;;;;;;6.59;87.39;104201.88;5036048;28;20048;-45
2022/03/19 05:29:03;;;;;;;17.27;6.85;;;;;;;6.61;87.47;104189.91;5044136;28;20044;-46
2022/03/19 05:31:34;;;;;;;15.60;7.30;;;;;;;6.54;87.62;104190.66;5055733;28;20056;-48
2022/03/19 05:36:48;;;;;;;13.90;6.13;;;;;;;6.58;87.55;104194.78;5054429;28;20389;-42
2022/03/19 05:39:15;;;;;;;16.13;6.68;;;;;;;6.64;87.46;104199.56;5047349;28;20084;-45
2022/03/19 05:41:43;;;;;;;18.55;6.65;;;;;;;6.67;87.12;104203.81;5054457;28;20127;-47
2022/03/19 05:44:11;;;;;;;17.52;7.57;;;;;;;6.56;86.75;104203.03;5055477;28;20037;-46
2022/03/19 05:46:38;;;;;;;15.57;6.75;;;;;;;6.55;87.58;104205.94;5053911;28;20079;-46
2022/03/19 05:49:06;;;;;;;17.67;7.05;;;;;;;6.55;87.79;104200.50;5051639;28;20047;-44
2022/03/19 05:51:34;;;;;;;16.08;6.45;;;;;;;6.46;87.81;104209.56;5054139;28;20041;-45
2022/03/19 05:54:02;;;;;;;16.70;6.40;;;;;;;6.37;88.42;104212.22;5055325;28;20051;-45
2022/03/19 05:56:31;;;;;;;19.38;7.22;;;;;;;6.30;88.48;104213.88;5055299;28;20048;-47
2022/03/19 05:58:59;;;;;;;16.23;7.13;;;;;;;6.31;88.60;104212.00;5047717;28;20500;-46
2022/03/19 06:01:26;;;;;;;16.00;6.68;;;;;;;6.33;89.13;104210.84;5034194;28;20563;-48
2022/03/19 06:03:55;;;;;;;21.67;7.72;;;;;;;6.36;88.63;104218.63;5035340;28;20084;-47
2022/03/19 06:06:24;;;;;;;18.17;7.50;;;;;;;6.31;89.27;104215.53;5034136;28;20042;-49
2022/03/19 06:08:52;;;;;;;16.80;7.25;;;;;;;6.35;88.97;104211.53;5044552;28;20037;-45
2022/03/19 06:11:20;;;;;;;17.90;7.28;;;;;;;6.28;88.93;104215.88;5054980;28;20049;-47
2022/03/19 06:13:48;;;;;;;19.02;7.82;;;;;;;6.23;89.53;104218.19;5053797;28;20049;-44
2022/03/19 06:16:15;;;;;;;17.63;7.03;;;;;;;6.31;89.10;104220.97;5054937;28;20071;-44
2022/03/19 06:18:46;;;;;;;18.85;7.22;;;;;;;6.44;88.44;104214.28;5038671;28;20049;-45
2022/03/19 06:21:14;;;;;;;19.05;7.25;;;;;;;6.46;88.04;104207.72;5035743;28;20484;-46
2022/03/19 06:23:41;;;;;;;11.93;6.55;;;;;;;6.35;88.56;104207.94;5033334;28;20550;-47
2022/03/19 06:26:09;;;;;;;16.88;7.07;;;;;;;6.33;89.23;104216.25;5034893;28;20034;-47
2022/03/19 06:28:37;;;;;;;18.00;7.38;;;;;;;6.40;88.68;104211.91;5038756;28;20044;-46
2022/03/19 06:31:05;;;;;;;18.02;7.18;;;;;;;6.44;88.06;104214.28;5035809;28;20038;-46
2022/03/19 06:33:33;;;;;;;19.40;7.93;;;;;;;6.36;88.64;104207.81;5034500;28;20455;-46
2022/03/19 06:38:46;;;;;;;13.98;6.30;;;;;;;6.49;88.70;104206.53;5043724;28;20492;-47
2022/03/19 06:41:14;;;;;;;18.55;6.72;;;;;;;6.46;88.10;104209.56;5051886;28;20071;-47
2022/03/19 06:43:43;;;;;;;17.67;7.35;;;;;;;6.45;88.44;104210.59;5054400;28;20075;-48
2022/03/19 06:46:11;;;;;;;20.50;7.93;;;;;;;6.47;88.21;104203.13;5054294;28;20047;-51
2022/03/19 06:48:39;;;;;;;16.80;7.35;;;;;;;6.46;88.44;104196.88;5044853;28;20462;-48
2022/03/19 06:51:07;;;;;;;25.15;7.18;;;;;;;6.54;87.77;104198.78;5040779;28;20041;-46
2022/03/19 06:53:38;;;;;;;18.13;7.75;;;;;;;6.54;88.04;104190.66;5034302;28;20041;-47
2022/03/19 06:56:06;;;;;;;16.83;6.43;;;;;;;6.52;88.04;104200.84;5033923;28;20438;-46
2022/03/19 06:58:34;;;;;;;18.10;7.30;;;;;;;6.46;88.34;104206.88;5044303;28;20041;-46
2022/03/19 07:01:02;;;;;;;16.08;7.13;;;;;;;6.53;88.44;104202.53;5050695;28;20056;-46
2022/03/19 07:03:31;;;;;;;18.05;7.10;;;;;;;6.62;88.09;104196.16;5036236;28;20484;-48
2022/03/19 07:05:59;;;;;;;19.30;6.88;;;;;;;6.66;87.66;104196.69;5052890;28;20041;-49
2022/03/19 07:08:46;;;;;;;18.02;7.97;;;;;;;6.68;87.52;104200.94;5043963;28;20038;-45
2022/03/19 07:11:14;;;;;;;16.08;7.00;;;;;;;6.72;87.30;104194.19;5049356;28;20040;-48
2022/03/19 07:13:42;;;;;;;15.80;7.47;;;;;;;6.75;87.23;104202.00;5053671;28;20033;-48
2022/03/19 07:16:09;;;;;;;21.90;8.02;;;;;;;6.79;87.06;104203.38;5053079;28;20768;-48
2022/03/19 07:18:37;;;;;;;18.55;7.40;;;;;;;6.81;87.49;104195.09;5040274;28;20048;-50
2022/03/19 07:21:05;;;;;;;15.68;6.68;;;;;;;6.81;87.15;104198.66;5050116;28;20047;-48
2022/03/19 07:23:33;;;;;;;15.85;6.68;;;;;;;6.82;86.46;104208.47;5053734;28;20037;-54
2022/03/19 07:26:01;;;;;;;15.13;5.85;;;;;;;6.85;87.25;104209.19;5053871;28;20041;-52
2022/03/19 07:28:29;;;;;;;17.20;6.25;;;;;;;6.91;86.02;104211.25;5042238;28;20045;-45
2022/03/19 07:30:57;;;;;;;16.17;6.70;;;;;;;7.00;85.96;104208.44;5047630;28;20049;-49
2022/03/19 07:33:26;;;;;;;16.67;6.80;;;;;;;7.06;85.70;104203.38;5052267;28;20049;-46
2022/03/19 07:35:53;;;;;;;16.42;6.72;;;;;;;7.03;85.65;104207.25;5053376;28;20064;-49
2022/03/19 07:38:21;;;;;;;15.68;6.70;;;;;;;7.02;85.68;104208.25;5047702;28;20381;-48
2022/03/19 07:43:35;;;;;;;19.45;7.18;;;;;;;7.10;84.38;104194.75;5033320;28;20120;-49
2022/03/19 07:46:03;;;;;;;16.48;6.53;;;;;;;7.16;83.96;104204.09;5033637;28;20079;-46
2022/03/19 07:48:30;;;;;;;19.20;6.88;;;;;;;7.21;83.59;104196.31;5044520;28;20146;-49
2022/03/19 07:50:58;;;;;;;13.90;5.70;;;;;;;7.31;83.57;104197.06;5041328;28;20041;-45
2022/03/19 07:53:25;;;;;;;15.38;6.72;;;;;;;7.34;82.54;104190.47;5033011;28;20499;-46
2022/03/19 07:55:54;;;;;;;16.48;6.78;;;;;;;7.37;82.89;104195.56;5033548;28;20099;-42
2022/03/19 07:58:23;;;;;;;16.33;6.72;;;;;;;7.41;81.54;104194.22;5051451;28;20049;-48
2022/03/19 08:00:51;;;;;;;17.55;6.13;;;;;;;7.62;81.99;104200.03;5045617;28;20040;-45
2022/03/19 08:03:19;;;;;;;18.70;6.50;;;;;;;7.65;82.35;104188.88;5043678;28;20067;-45
2022/03/19 08:05:47;;;;;;;15.77;5.93;;;;;;;7.79;81.24;104198.25;5045148;28;20049;-45
2022/03/19 08:08:15;;;;;;;21.33;6.47;;;;;;;7.81;78.87;104187.22;5051562;28;20045;-47
2022/03/19 08:10:43;;;;;;;20.45;7.03;;;;;;;7.71;78.18;104194.66;5052903;28;20080;-44
2022/03/19 08:13:11;;;;;;;16.70;6.43;;;;;;;7.75;77.86;104196.03;5056057;28;20059;-44
2022/03/19 08:15:40;;;;;;;15.63;5.90;;;;;;;7.73;77.71;104203.50;5057241;28;20041;-45
2022/03/19 08:18:10;;;;;;;17.95;6.00;;;;;;;7.72;78.27;104199.06;5056945;28;20075;-43
2022/03/19 08:20:39;;;;;;;17.95;6.32;;;;;;;7.71;78.30;104202.81;5055856;28;20040;-44
2022/03/19 08:23:06;;;;;;;16.38;5.90;;;;;;;7.72;78.03;104201.78;5056949;28;20139;-45
2022/03/19 08:25:34;;;;;;;21.20;6.82;;;;;;;7.80;78.16;104190.94;5056798;28;20056;-45
2022/03/19 08:28:02;;;;;;;15.65;5.65;;;;;;;7.83;76.90;104193.31;5056975;28;20067;-47
2022/03/19 08:30:32;;;;;;;14.55;5.97;;;;;;;7.84;76.09;104197.72;5056842;28;20040;-42
2022/03/19 08:33:01;;;;;;;17.02;6.18;;;;;;;7.86;76.45;104202.00;5055687;28;20041;-44
2022/03/19 08:35:28;;;;;;;17.85;6.53;;;;;;;7.85;75.56;104199.44;5056640;28;20045;-46
2022/03/19 08:40:42;;;;;;;16.65;5.95;;;;;;;7.85;75.85;104199.44;5055590;28;20499;-49
2022/03/19 08:43:11;;;;;;;18.45;6.53;;;;;;;7.91;75.80;104196.03;5056734;28;20045;-49
2022/03/19 08:45:39;;;;;;;18.50;6.25;;;;;;;7.99;74.55;104190.66;5056734;28;20052;-48
2022/03/19 08:48:06;;;;;;;13.23;5.70;;;;;;;8.03;75.38;104192.00;5055436;28;20136;-45
2022/03/19 08:50:34;;;;;;;16.15;6.07;;;;;;;8.07;74.82;104197.94;5056541;28;20037;-49
2022/03/19 08:53:02;;;;;;;13.50;5.40;;;;;;;8.10;75.03;104194.88;5056234;28;20037;-47
2022/03/19 08:55:29;;;;;;;16.92;6.22;;;;;;;8.15;75.13;104199.81;5055183;28;20072;-46
2022/03/19 08:57:57;;;;;;;19.20;5.72;;;;;;;8.16;73.97;104196.94;5056228;28;20519;-43
2022/03/19 09:00:25;;;;;;;15.45;5.97;;;;;;;8.15;73.63;104191.66;5056154;28;20052;-47
2022/03/19 09:02:52;;;;;;;16.00;6.30;;;;;;;8.19;73.06;104191.16;5056415;28;20403;-47
2022/03/19 09:05:20;;;;;;;18.23;5.90;;;;;;;8.23;73.15;104178.09;5056117;28;20033;-50
2022/03/19 09:07:48;;;;;;;21.33;6.22;;;;;;;8.33;74.44;104185.06;5056013;28;20504;-47
2022/03/19 09:10:15;;;;;;;16.38;5.68;;;;;;;8.32;72.39;104190.66;5054884;28;20037;-46
2022/03/19 09:12:43;;;;;;;20.00;5.75;;;;;;;8.34;73.00;104183.19;5056067;28;20086;-45
2022/03/19 09:15:11;;;;;;;17.98;5.68;;;;;;;8.39;72.86;104172.66;5054689;28;20041;-44
2022/03/19 09:17:40;;;;;;;14.98;6.05;;;;;;;8.45;71.81;104184.75;5054885;28;20072;-42
2022/03/19 09:20:10;;;;;;;15.50;5.90;;;;;;;8.46;71.47;104176.41;5054575;28;20514;-45
2022/03/19 09:22:38;;;;;;;15.80;5.75;;;;;;;8.52;72.14;104172.19;5056250;28;20041;-45
2022/03/19 09:25:06;;;;;;;20.70;5.80;;;;;;;8.55;70.69;104173.69;5055725;28;20033;-46
2022/03/19 09:27:34;;;;;;;19.67;6.30;;;;;;;8.66;71.37;104176.03;5054509;28;20040;-45
2022/03/19 09:30:02;;;;;;;17.83;5.38;;;;;;;8.69;69.62;104178.44;5055420;28;20128;-46
2022/03/19 09:32:30;;;;;;;18.58;6.22;;;;;;;8.70;67.83;104167.38;5055913;28;20037;-46
2022/03/19 09:34:58;;;;;;;17.00;6.03;;;;;;;8.77;68.96;104167.53;5055586;28;20041;-43
2022/03/19 09:37:26;;;;;;;16.65;5.70;;;;;;;8.86;67.07;104160.22;5054040;28;20155;-47
2022/03/19 09:39:54;;;;;;;15.32;6.53;;;;;;;8.90;68.49;104153.41;5054118;28;20047;-48
2022/03/19 09:42:22;;;;;;;15.65;6.03;;;;;;;8.89;67.45;104159.84;5055317;28;20048;-46
2022/03/19 09:44:49;;;;;;;15.40;5.03;;;;;;;8.89;65.14;104149.81;5055585;28;20064;-44
2022/03/19 09:47:17;;;;;;;19.17;6.03;;;;;;;8.96;64.57;104144.53;5054204;28;20530;-45
2022/03/19 09:49:45;;;;;;;14.27;5.43;;;;;;;9.01;63.26;104153.00;5055259;28;20051;-44
2022/03/19 09:52:13;;;;;;;15.80;5.00;;;;;;;9.07;63.01;104146.03;5055372;28;20049;-45
2022/03/19 09:54:42;;;;;;;14.90;5.32;;;;;;;9.14;63.88;104147.03;5053996;28;20095;-43
2022/03/19 09:57:10;;;;;;;13.55;5.22;;;;;;;9.16;62.19;104144.97;5053785;28;20044;-43
2022/03/19 09:59:38;;;;;;;16.20;5.32;;;;;;;9.22;62.25;104138.00;5055040;28;20041;-44
2022/03/19 10:02:12;;;;;;;15.85;5.20;;;;;;;9.26;63.07;104133.88;5054190;28;20049;-45
2022/03/19 10:04:40;;;;;;;16.38;5.15;;;;;;;9.28;59.74;104132.66;5054030;28;20041;-44
2022/03/19 10:09:57;;;;;;;13.68;5.03;;;;;;;9.38;56.29;104122.41;5054030;28;20449;-42
2022/03/19 10:12:30;;;;;;;12.48;4.20;;;;;;;9.38;57.47;104116.13;5053624;28;20041;-44
2022/03/19 10:14:59;;;;;;;13.73;4.80;;;;;;;9.39;56.62;104118.66;5054976;28;20123;-43
2022/03/19 10:17:30;;;;;;;10.10;4.35;;;;;;;9.48;56.53;104107.75;5053566;28;20077;-43
2022/03/19 10:20:00;;;;;;;14.65;5.18;;;;;;;9.51;56.34;104099.22;5054762;28;20040;-47
2022/03/19 10:22:29;;;;;;;12.70;4.80;;;;;;;9.57;53.83;104093.03;5053387;28;20052;-45
2022/03/19 10:24:59;;;;;;;14.30;4.97;;;;;;;9.60;53.29;104093.53;5053548;28;20053;-46
2022/03/19 10:27:34;;;;;;;12.98;4.53;;;;;;;9.67;52.66;104081.91;5054872;28;20048;-48
2022/03/19 10:30:04;;;;;;;14.25;4.53;;;;;;;9.73;52.52;104082.03;5054419;28;20067;-46
2022/03/19 10:32:32;;;;;;;16.05;4.97;;;;;;;9.84;52.04;104090.78;5054456;28;20041;-46
2022/03/19 10:35:01;;;;;;;13.38;4.65;;;;;;;9.82;51.61;104082.81;5053989;28;20501;-45
2022/03/19 10:37:39;;;;;;;12.43;4.97;;;;;;;9.89;52.74;104080.22;5054086;28;20559;-46
2022/03/19 10:40:09;;;;;;;13.52;4.18;;;;;;;9.90;47.95;104087.34;5053465;28;20051;-48
2022/03/19 10:42:41;;;;;;;9.23;4.35;;;;;;;9.94;49.73;104051.38;5053148;28;20503;-50
2022/03/19 10:45:14;;;;;;;8.63;3.75;;;;;;;9.97;46.26;104071.97;5054379;28;20041;-46
2022/03/19 10:47:46;;;;;;;12.80;4.03;;;;;;;10.07;45.05;104056.19;5054542;28;20460;-50
2022/03/19 10:50:24;;;;;;;9.38;3.80;;;;;;;10.09;44.10;104056.84;5054255;28;20044;-48
2022/03/19 10:52:53;;;;;;;11.73;4.22;;;;;;;10.09;43.95;104059.59;5054256;28;20076;-46
2022/03/19 10:55:21;;;;;;;12.05;4.03;;;;;;;10.14;42.32;104046.25;5053972;28;20495;-47
2022/03/19 10:57:48;;;;;;;7.68;3.40;;;;;;;10.22;40.47;104054.34;5047867;28;20095;-46
2022/03/19 11:00:22;;;;;;;10.35;3.88;;;;;;;10.18;39.27;104039.41;5049094;28;20438;-43
2022/03/19 11:02:54;;;;;;;9.73;3.30;;;;;;;10.17;38.24;104043.19;5050019;28;20067;-47
2022/03/19 11:05:34;;;;;;;9.15;3.63;;;;;;;10.26;37.67;104043.06;5054340;28;20051;-46
2022/03/19 11:08:02;;;;;;;6.93;3.40;;;;;;;10.30;36.83;104030.81;5049962;28;20049;-48
2022/03/19 11:10:30;;;;;;;9.15;3.75;;;;;;;10.37;36.96;104035.31;5049698;28;20037;-46
2022/03/19 11:12:59;;;;;;;12.02;3.67;;;;;;;10.46;36.52;104027.88;5052180;28;20499;-44
2022/03/19 11:15:32;;;;;;;10.02;3.28;;;;;;;10.51;36.65;104030.91;4345987;28;10000620;-48
2022/03/19 11:18:03;;;;;;;11.82;3.80;;;;;;;10.54;36.97;104025.06;5031743;28;20037;-47
2022/03/19 11:20:31;;;;;;;8.20;3.13;;;;;;;10.52;37.19;104021.69;5031618;28;20045;-48
2022/03/19 11:23:01;;;;;;;8.43;3.80;;;;;;;10.61;36.57;104009.63;5029311;28;20057;-45
2022/03/19 11:25:30;;;;;;;10.60;3.25;;;;;;;10.60;36.37;104010.66;5029083;28;20053;-48
2022/03/19 11:28:00;;;;;;;8.52;3.53;;;;;;;10.65;37.15;104004.63;5031393;28;20522;-47
2022/03/19 11:30:31;;;;;;;10.20;3.95;;;;;;;10.65;38.68;103999.19;5036903;28;20041;-49
2022/03/19 11:33:06;;;;;;;11.85;4.00;;;;;;;10.78;39.27;103987.63;5032354;28;20038;-50
2022/03/19 11:35:38;;;;;;;12.50;3.92;;;;;;;10.76;45.90;103992.41;5032052;28;20512;-47
2022/03/19 11:38:13;;;;;;;10.98;3.65;;;;;;;10.79;36.93;103983.84;5032265;28;20045;-47
2022/03/19 11:40:43;;;;;;;8.75;2.95;;;;;;;10.70;33.86;103976.78;5043570;28;20042;-48
2022/03/19 11:43:27;;;;;;;6.18;2.88;;;;;;;10.74;34.41;103980.84;5033083;28;20527;-47
2022/03/19 11:45:56;;;;;;;10.00;3.08;;;;;;;10.77;34.99;103961.34;5033143;28;20072;-46
2022/03/19 11:48:39;;;;;;;8.45;3.15;;;;;;;10.77;39.07;103972.28;5032804;28;20095;-49
2022/03/19 11:51:15;;;;;;;8.95;3.03;;;;;;;10.83;34.08;103956.00;5037045;28;20040;-51